sensor_id;sensor_type;location;lat;lon;timestamp;P1;durP1;ratioP1;P2;durP2;ratioP2
32032;SDS011;31720;52.638;9.216;2023-07-16T00:01:52;1.02;;;0.90;;
32032;SDS011;31720;52.638;9.216;2023-07-16T00:04:54;2.22;;;0.73;;
32032;SDS011;31720;52.638;9.216;2023-07-16T00:07:55;3.15;;;1.08;;
32032;SDS011;31720;52.638;9.216;2023-07-16T00:10:58;1.45;;;1.10;;
32032;SDS011;31720;52.638;9.216;2023-07-16T00:14:00;2.15;;;1.10;;
32032;SDS011;31720;52.638;9.216;2023-07-16T00:17:02;2.45;;;0.80;;
32032;SDS011;31720;52.638;9.216;2023-07-16T00:20:04;4.68;;;1.27;;
32032;SDS011;31720;52.638;9.216;2023-07-16T00:23:06;2.40;;;1.00;;
32032;SDS011;31720;52.638;9.216;2023-07-16T00:26:08;3.28;;;1.38;;
32032;SDS011;31720;52.638;9.216;2023-07-16T00:29:10;2.58;;;0.82;;
32032;SDS011;31720;52.638;9.216;2023-07-16T00:32:11;1.63;;;0.80;;
32032;SDS011;31720;52.638;9.216;2023-07-16T00:35:13;2.17;;;1.08;;
32032;SDS011;31720;52.638;9.216;2023-07-16T00:38:14;3.88;;;1.15;;
32032;SDS011;31720;52.638;9.216;2023-07-16T00:41:19;3.42;;;0.88;;
32032;SDS011;31720;52.638;9.216;2023-07-16T00:44:21;2.88;;;1.10;;
32032;SDS011;31720;52.638;9.216;2023-07-16T00:47:22;1.10;;;0.73;;
32032;SDS011;31720;52.638;9.216;2023-07-16T00:50:24;2.55;;;0.90;;
32032;SDS011;31720;52.638;9.216;2023-07-16T00:53:25;4.93;;;1.10;;
32032;SDS011;31720;52.638;9.216;2023-07-16T00:56:28;1.58;;;1.02;;
32032;SDS011;31720;52.638;9.216;2023-07-16T00:59:30;1.95;;;0.93;;
32032;SDS011;31720;52.638;9.216;2023-07-16T01:02:32;5.43;;;1.35;;
32032;SDS011;31720;52.638;9.216;2023-07-16T01:05:34;2.10;;;1.13;;
32032;SDS011;31720;52.638;9.216;2023-07-16T01:08:41;1.20;;;0.90;;
32032;SDS011;31720;52.638;9.216;2023-07-16T01:11:47;1.10;;;0.85;;
32032;SDS011;31720;52.638;9.216;2023-07-16T01:14:50;1.65;;;1.17;;
32032;SDS011;31720;52.638;9.216;2023-07-16T01:17:53;2.05;;;1.13;;
32032;SDS011;31720;52.638;9.216;2023-07-16T01:20:54;6.45;;;1.10;;
32032;SDS011;31720;52.638;9.216;2023-07-16T01:23:59;1.40;;;1.10;;
32032;SDS011;31720;52.638;9.216;2023-07-16T01:27:14;1.48;;;1.10;;
32032;SDS011;31720;52.638;9.216;2023-07-16T01:30:27;1.38;;;0.82;;
32032;SDS011;31720;52.638;9.216;2023-07-16T01:33:29;2.63;;;1.10;;
32032;SDS011;31720;52.638;9.216;2023-07-16T01:36:30;2.83;;;1.25;;
32032;SDS011;31720;52.638;9.216;2023-07-16T01:39:34;2.63;;;0.98;;
32032;SDS011;31720;52.638;9.216;2023-07-16T01:42:36;3.13;;;1.13;;
32032;SDS011;31720;52.638;9.216;2023-07-16T01:45:38;3.35;;;1.00;;
32032;SDS011;31720;52.638;9.216;2023-07-16T01:48:40;1.90;;;0.93;;
32032;SDS011;31720;52.638;9.216;2023-07-16T01:51:41;1.30;;;0.90;;
32032;SDS011;31720;52.638;9.216;2023-07-16T01:54:43;1.92;;;1.05;;
32032;SDS011;31720;52.638;9.216;2023-07-16T01:57:44;1.75;;;1.17;;
32032;SDS011;31720;52.638;9.216;2023-07-16T02:00:47;6.43;;;1.42;;
32032;SDS011;31720;52.638;9.216;2023-07-16T02:03:48;1.48;;;0.85;;
32032;SDS011;31720;52.638;9.216;2023-07-16T02:06:50;1.60;;;1.20;;
32032;SDS011;31720;52.638;9.216;2023-07-16T02:09:51;3.80;;;0.80;;
32032;SDS011;31720;52.638;9.216;2023-07-16T02:12:53;2.28;;;1.10;;
32032;SDS011;31720;52.638;9.216;2023-07-16T02:15:55;6.20;;;1.15;;
32032;SDS011;31720;52.638;9.216;2023-07-16T02:18:57;1.15;;;1.00;;
32032;SDS011;31720;52.638;9.216;2023-07-16T02:21:58;1.23;;;0.90;;
32032;SDS011;31720;52.638;9.216;2023-07-16T02:25:00;0.98;;;0.85;;
32032;SDS011;31720;52.638;9.216;2023-07-16T02:28:01;2.28;;;0.80;;
32032;SDS011;31720;52.638;9.216;2023-07-16T02:31:04;3.97;;;1.00;;
32032;SDS011;31720;52.638;9.216;2023-07-16T02:34:06;5.32;;;1.30;;
32032;SDS011;31720;52.638;9.216;2023-07-16T02:37:07;5.18;;;1.17;;
32032;SDS011;31720;52.638;9.216;2023-07-16T02:40:09;3.25;;;1.13;;
32032;SDS011;31720;52.638;9.216;2023-07-16T02:43:10;2.35;;;1.02;;
32032;SDS011;31720;52.638;9.216;2023-07-16T02:46:13;3.53;;;1.02;;
32032;SDS011;31720;52.638;9.216;2023-07-16T02:49:14;2.92;;;1.27;;
32032;SDS011;31720;52.638;9.216;2023-07-16T02:52:16;2.78;;;1.48;;
32032;SDS011;31720;52.638;9.216;2023-07-16T02:55:17;2.22;;;1.00;;
32032;SDS011;31720;52.638;9.216;2023-07-16T02:58:19;2.08;;;1.00;;
32032;SDS011;31720;52.638;9.216;2023-07-16T03:01:22;3.47;;;1.10;;
32032;SDS011;31720;52.638;9.216;2023-07-16T03:04:23;2.15;;;0.93;;
32032;SDS011;31720;52.638;9.216;2023-07-16T03:07:24;1.05;;;0.85;;
32032;SDS011;31720;52.638;9.216;2023-07-16T03:10:26;6.20;;;1.30;;
32032;SDS011;31720;52.638;9.216;2023-07-16T03:13:27;1.00;;;0.90;;
32032;SDS011;31720;52.638;9.216;2023-07-16T03:16:30;4.28;;;1.20;;
32032;SDS011;31720;52.638;9.216;2023-07-16T03:19:31;3.40;;;1.00;;
32032;SDS011;31720;52.638;9.216;2023-07-16T03:22:33;2.20;;;1.00;;
32032;SDS011;31720;52.638;9.216;2023-07-16T03:25:34;1.73;;;0.95;;
32032;SDS011;31720;52.638;9.216;2023-07-16T03:28:36;1.98;;;0.90;;
32032;SDS011;31720;52.638;9.216;2023-07-16T03:31:38;3.85;;;1.15;;
32032;SDS011;31720;52.638;9.216;2023-07-16T03:34:40;3.35;;;1.40;;
32032;SDS011;31720;52.638;9.216;2023-07-16T03:37:41;1.05;;;0.85;;
32032;SDS011;31720;52.638;9.216;2023-07-16T03:40:49;2.22;;;0.75;;
32032;SDS011;31720;52.638;9.216;2023-07-16T03:43:51;2.78;;;1.15;;
32032;SDS011;31720;52.638;9.216;2023-07-16T03:46:53;1.63;;;1.27;;
32032;SDS011;31720;52.638;9.216;2023-07-16T03:49:55;1.60;;;1.20;;
32032;SDS011;31720;52.638;9.216;2023-07-16T03:52:56;1.77;;;0.73;;
32032;SDS011;31720;52.638;9.216;2023-07-16T03:55:58;2.30;;;1.10;;
32032;SDS011;31720;52.638;9.216;2023-07-16T03:58:59;6.45;;;1.48;;
32032;SDS011;31720;52.638;9.216;2023-07-16T04:02:02;2.83;;;1.23;;
32032;SDS011;31720;52.638;9.216;2023-07-16T04:05:03;1.70;;;1.02;;
32032;SDS011;31720;52.638;9.216;2023-07-16T04:08:05;1.60;;;1.15;;
32032;SDS011;31720;52.638;9.216;2023-07-16T04:11:08;3.40;;;1.33;;
32032;SDS011;31720;52.638;9.216;2023-07-16T04:14:09;4.18;;;1.40;;
32032;SDS011;31720;52.638;9.216;2023-07-16T04:17:12;2.55;;;1.38;;
32032;SDS011;31720;52.638;9.216;2023-07-16T04:20:14;2.38;;;1.27;;
32032;SDS011;31720;52.638;9.216;2023-07-16T04:23:15;1.80;;;1.00;;
32032;SDS011;31720;52.638;9.216;2023-07-16T04:26:16;3.38;;;1.17;;
32032;SDS011;31720;52.638;9.216;2023-07-16T04:29:18;3.50;;;1.80;;
32032;SDS011;31720;52.638;9.216;2023-07-16T04:32:21;3.25;;;1.70;;
32032;SDS011;31720;52.638;9.216;2023-07-16T04:35:23;1.90;;;1.30;;
32032;SDS011;31720;52.638;9.216;2023-07-16T04:38:24;2.33;;;1.05;;
32032;SDS011;31720;52.638;9.216;2023-07-16T04:41:26;5.40;;;1.38;;
32032;SDS011;31720;52.638;9.216;2023-07-16T04:44:28;3.80;;;1.20;;
32032;SDS011;31720;52.638;9.216;2023-07-16T04:47:31;4.60;;;1.58;;
32032;SDS011;31720;52.638;9.216;2023-07-16T04:50:33;1.52;;;1.30;;
32032;SDS011;31720;52.638;9.216;2023-07-16T04:53:34;3.50;;;1.63;;
32032;SDS011;31720;52.638;9.216;2023-07-16T04:56:35;4.05;;;1.33;;
32032;SDS011;31720;52.638;9.216;2023-07-16T04:59:37;3.92;;;1.40;;
32032;SDS011;31720;52.638;9.216;2023-07-16T05:02:40;2.90;;;1.50;;
32032;SDS011;31720;52.638;9.216;2023-07-16T05:05:41;2.45;;;1.17;;
32032;SDS011;31720;52.638;9.216;2023-07-16T05:08:43;2.78;;;1.30;;
32032;SDS011;31720;52.638;9.216;2023-07-16T05:11:44;2.75;;;1.02;;
32032;SDS011;31720;52.638;9.216;2023-07-16T05:14:46;4.25;;;1.60;;
32032;SDS011;31720;52.638;9.216;2023-07-16T05:17:49;2.92;;;1.30;;
32032;SDS011;31720;52.638;9.216;2023-07-16T05:20:51;2.70;;;1.27;;
32032;SDS011;31720;52.638;9.216;2023-07-16T05:23:52;3.35;;;1.55;;
32032;SDS011;31720;52.638;9.216;2023-07-16T05:26:54;2.70;;;1.40;;
32032;SDS011;31720;52.638;9.216;2023-07-16T05:29:55;2.20;;;1.50;;
32032;SDS011;31720;52.638;9.216;2023-07-16T05:32:58;2.47;;;1.17;;
32032;SDS011;31720;52.638;9.216;2023-07-16T05:35:59;3.47;;;1.27;;
32032;SDS011;31720;52.638;9.216;2023-07-16T05:39:00;3.03;;;1.35;;
32032;SDS011;31720;52.638;9.216;2023-07-16T05:42:02;4.45;;;1.42;;
32032;SDS011;31720;52.638;9.216;2023-07-16T05:45:04;2.13;;;1.48;;
32032;SDS011;31720;52.638;9.216;2023-07-16T05:48:08;3.35;;;1.70;;
32032;SDS011;31720;52.638;9.216;2023-07-16T05:51:09;5.22;;;1.98;;
32032;SDS011;31720;52.638;9.216;2023-07-16T05:54:11;2.80;;;1.50;;
32032;SDS011;31720;52.638;9.216;2023-07-16T05:57:12;3.78;;;1.10;;
32032;SDS011;31720;52.638;9.216;2023-07-16T06:00:14;4.18;;;1.77;;
32032;SDS011;31720;52.638;9.216;2023-07-16T06:03:16;1.88;;;1.38;;
32032;SDS011;31720;52.638;9.216;2023-07-16T06:06:18;2.50;;;1.42;;
32032;SDS011;31720;52.638;9.216;2023-07-16T06:09:20;6.90;;;1.58;;
32032;SDS011;31720;52.638;9.216;2023-07-16T06:12:21;3.83;;;1.60;;
32032;SDS011;31720;52.638;9.216;2023-07-16T06:15:23;3.25;;;1.40;;
32032;SDS011;31720;52.638;9.216;2023-07-16T06:18:26;2.65;;;1.45;;
32032;SDS011;31720;52.638;9.216;2023-07-16T06:21:27;2.25;;;1.50;;
32032;SDS011;31720;52.638;9.216;2023-07-16T06:24:28;2.95;;;1.08;;
32032;SDS011;31720;52.638;9.216;2023-07-16T06:27:30;4.97;;;1.40;;
32032;SDS011;31720;52.638;9.216;2023-07-16T06:30:31;1.58;;;1.38;;
32032;SDS011;31720;52.638;9.216;2023-07-16T06:33:35;5.35;;;2.03;;
32032;SDS011;31720;52.638;9.216;2023-07-16T06:36:36;4.13;;;2.17;;
32032;SDS011;31720;52.638;9.216;2023-07-16T06:39:38;5.93;;;2.00;;
32032;SDS011;31720;52.638;9.216;2023-07-16T06:42:40;4.93;;;1.88;;
32032;SDS011;31720;52.638;9.216;2023-07-16T06:45:41;4.65;;;1.80;;
32032;SDS011;31720;52.638;9.216;2023-07-16T06:48:44;7.80;;;1.92;;
32032;SDS011;31720;52.638;9.216;2023-07-16T06:51:45;3.38;;;1.55;;
32032;SDS011;31720;52.638;9.216;2023-07-16T06:54:47;3.33;;;1.60;;
32032;SDS011;31720;52.638;9.216;2023-07-16T06:57:49;5.45;;;1.80;;
32032;SDS011;31720;52.638;9.216;2023-07-16T07:00:50;3.05;;;1.60;;
32032;SDS011;31720;52.638;9.216;2023-07-16T07:03:53;1.75;;;1.10;;
32032;SDS011;31720;52.638;9.216;2023-07-16T07:06:54;2.00;;;1.38;;
32032;SDS011;31720;52.638;9.216;2023-07-16T07:09:56;4.40;;;1.30;;
32032;SDS011;31720;52.638;9.216;2023-07-16T07:12:57;5.20;;;1.58;;
32032;SDS011;31720;52.638;9.216;2023-07-16T07:15:58;3.20;;;1.38;;
32032;SDS011;31720;52.638;9.216;2023-07-16T07:19:01;5.45;;;1.27;;
32032;SDS011;31720;52.638;9.216;2023-07-16T07:22:03;4.82;;;1.40;;
32032;SDS011;31720;52.638;9.216;2023-07-16T07:25:05;2.70;;;1.40;;
32032;SDS011;31720;52.638;9.216;2023-07-16T07:28:07;1.95;;;1.38;;
32032;SDS011;31720;52.638;9.216;2023-07-16T07:31:08;2.80;;;1.55;;
32032;SDS011;31720;52.638;9.216;2023-07-16T07:34:11;5.32;;;1.33;;
32032;SDS011;31720;52.638;9.216;2023-07-16T07:37:13;3.63;;;1.30;;
32032;SDS011;31720;52.638;9.216;2023-07-16T07:40:14;5.97;;;2.00;;
32032;SDS011;31720;52.638;9.216;2023-07-16T07:43:16;4.55;;;1.70;;
32032;SDS011;31720;52.638;9.216;2023-07-16T07:46:17;6.30;;;1.85;;
32032;SDS011;31720;52.638;9.216;2023-07-16T07:49:20;3.28;;;2.00;;
32032;SDS011;31720;52.638;9.216;2023-07-16T07:52:21;7.00;;;1.90;;
32032;SDS011;31720;52.638;9.216;2023-07-16T07:55:23;5.53;;;1.70;;
32032;SDS011;31720;52.638;9.216;2023-07-16T07:58:24;3.78;;;1.80;;
32032;SDS011;31720;52.638;9.216;2023-07-16T08:01:26;3.67;;;2.15;;
32032;SDS011;31720;52.638;9.216;2023-07-16T08:04:29;3.53;;;1.95;;
32032;SDS011;31720;52.638;9.216;2023-07-16T08:07:32;7.45;;;2.53;;
32032;SDS011;31720;52.638;9.216;2023-07-16T08:10:33;4.95;;;2.35;;
32032;SDS011;31720;52.638;9.216;2023-07-16T08:13:34;9.85;;;2.10;;
32032;SDS011;31720;52.638;9.216;2023-07-16T08:16:36;3.50;;;1.58;;
32032;SDS011;31720;52.638;9.216;2023-07-16T08:19:39;9.95;;;1.90;;
32032;SDS011;31720;52.638;9.216;2023-07-16T08:22:40;7.35;;;2.08;;
32032;SDS011;31720;52.638;9.216;2023-07-16T08:25:42;3.55;;;2.08;;
32032;SDS011;31720;52.638;9.216;2023-07-16T08:28:43;3.83;;;1.75;;
32032;SDS011;31720;52.638;9.216;2023-07-16T08:31:45;8.55;;;2.15;;
32032;SDS011;31720;52.638;9.216;2023-07-16T08:34:48;3.17;;;1.90;;
32032;SDS011;31720;52.638;9.216;2023-07-16T08:37:49;6.20;;;2.20;;
32032;SDS011;31720;52.638;9.216;2023-07-16T08:40:51;3.75;;;1.98;;
32032;SDS011;31720;52.638;9.216;2023-07-16T08:43:52;7.85;;;2.15;;
32032;SDS011;31720;52.638;9.216;2023-07-16T08:46:54;4.13;;;2.20;;
32032;SDS011;31720;52.638;9.216;2023-07-16T08:49:58;3.88;;;1.75;;
32032;SDS011;31720;52.638;9.216;2023-07-16T08:53:00;5.03;;;1.70;;
32032;SDS011;31720;52.638;9.216;2023-07-16T08:56:02;2.70;;;1.95;;
32032;SDS011;31720;52.638;9.216;2023-07-16T08:59:05;4.60;;;1.73;;
32032;SDS011;31720;52.638;9.216;2023-07-16T09:02:07;3.85;;;2.00;;
32032;SDS011;31720;52.638;9.216;2023-07-16T09:05:10;6.35;;;2.30;;
32032;SDS011;31720;52.638;9.216;2023-07-16T09:08:12;3.83;;;2.00;;
32032;SDS011;31720;52.638;9.216;2023-07-16T09:11:14;5.88;;;2.55;;
32032;SDS011;31720;52.638;9.216;2023-07-16T09:14:21;4.43;;;2.10;;
32032;SDS011;31720;52.638;9.216;2023-07-16T09:17:22;8.82;;;2.33;;
32032;SDS011;31720;52.638;9.216;2023-07-16T09:20:26;2.97;;;1.90;;
32032;SDS011;31720;52.638;9.216;2023-07-16T09:23:30;5.57;;;1.90;;
32032;SDS011;31720;52.638;9.216;2023-07-16T09:26:32;3.67;;;1.83;;
32032;SDS011;31720;52.638;9.216;2023-07-16T09:29:33;4.65;;;2.25;;
32032;SDS011;31720;52.638;9.216;2023-07-16T09:32:35;4.63;;;1.85;;
32032;SDS011;31720;52.638;9.216;2023-07-16T09:35:38;5.97;;;2.25;;
32032;SDS011;31720;52.638;9.216;2023-07-16T09:38:40;2.75;;;1.50;;
32032;SDS011;31720;52.638;9.216;2023-07-16T09:41:42;2.20;;;1.60;;
32032;SDS011;31720;52.638;9.216;2023-07-16T09:44:43;3.72;;;1.77;;
32032;SDS011;31720;52.638;9.216;2023-07-16T09:47:45;6.95;;;1.92;;
32032;SDS011;31720;52.638;9.216;2023-07-16T09:50:50;6.60;;;2.38;;
32032;SDS011;31720;52.638;9.216;2023-07-16T09:53:53;4.43;;;1.88;;
32032;SDS011;31720;52.638;9.216;2023-07-16T09:56:56;2.75;;;1.30;;
32032;SDS011;31720;52.638;9.216;2023-07-16T10:00:00;6.50;;;1.83;;
32032;SDS011;31720;52.638;9.216;2023-07-16T10:03:07;3.47;;;1.92;;
32032;SDS011;31720;52.638;9.216;2023-07-16T10:06:12;3.65;;;1.90;;
32032;SDS011;31720;52.638;9.216;2023-07-16T10:09:14;4.15;;;1.73;;
32032;SDS011;31720;52.638;9.216;2023-07-16T10:12:16;6.13;;;1.63;;
32032;SDS011;31720;52.638;9.216;2023-07-16T10:15:24;2.85;;;1.73;;
32032;SDS011;31720;52.638;9.216;2023-07-16T10:18:27;2.35;;;1.45;;
32032;SDS011;31720;52.638;9.216;2023-07-16T10:21:36;3.10;;;1.40;;
32032;SDS011;31720;52.638;9.216;2023-07-16T10:24:38;2.17;;;1.38;;
32032;SDS011;31720;52.638;9.216;2023-07-16T10:27:40;5.32;;;2.08;;
32032;SDS011;31720;52.638;9.216;2023-07-16T10:30:41;3.70;;;1.50;;
32032;SDS011;31720;52.638;9.216;2023-07-16T10:33:43;3.67;;;1.70;;
32032;SDS011;31720;52.638;9.216;2023-07-16T10:36:45;3.97;;;2.10;;
32032;SDS011;31720;52.638;9.216;2023-07-16T10:39:47;3.78;;;1.20;;
32032;SDS011;31720;52.638;9.216;2023-07-16T10:42:49;7.53;;;2.05;;
32032;SDS011;31720;52.638;9.216;2023-07-16T10:45:53;4.53;;;1.80;;
32032;SDS011;31720;52.638;9.216;2023-07-16T10:48:55;4.15;;;2.03;;
32032;SDS011;31720;52.638;9.216;2023-07-16T10:51:58;3.00;;;1.52;;
32032;SDS011;31720;52.638;9.216;2023-07-16T10:55:01;4.88;;;1.60;;
32032;SDS011;31720;52.638;9.216;2023-07-16T10:58:03;2.88;;;2.00;;
32032;SDS011;31720;52.638;9.216;2023-07-16T11:01:07;4.50;;;1.77;;
32032;SDS011;31720;52.638;9.216;2023-07-16T11:04:09;4.05;;;1.80;;
32032;SDS011;31720;52.638;9.216;2023-07-16T11:07:12;5.32;;;1.40;;
32032;SDS011;31720;52.638;9.216;2023-07-16T11:10:15;3.92;;;1.48;;
32032;SDS011;31720;52.638;9.216;2023-07-16T11:13:17;1.95;;;1.25;;
32032;SDS011;31720;52.638;9.216;2023-07-16T11:16:18;1.83;;;1.52;;
32032;SDS011;31720;52.638;9.216;2023-07-16T11:19:20;3.55;;;1.83;;
32032;SDS011;31720;52.638;9.216;2023-07-16T11:22:27;5.88;;;1.98;;
32032;SDS011;31720;52.638;9.216;2023-07-16T11:25:29;3.17;;;1.70;;
32032;SDS011;31720;52.638;9.216;2023-07-16T11:28:37;6.10;;;1.95;;
32032;SDS011;31720;52.638;9.216;2023-07-16T11:31:38;3.05;;;1.70;;
32032;SDS011;31720;52.638;9.216;2023-07-16T11:34:52;2.47;;;1.52;;
32032;SDS011;31720;52.638;9.216;2023-07-16T11:37:56;7.20;;;1.98;;
32032;SDS011;31720;52.638;9.216;2023-07-16T11:40:59;4.82;;;2.25;;
32032;SDS011;31720;52.638;9.216;2023-07-16T11:44:01;5.00;;;2.15;;
32032;SDS011;31720;52.638;9.216;2023-07-16T11:47:03;2.53;;;1.55;;
32032;SDS011;31720;52.638;9.216;2023-07-16T11:50:05;4.93;;;2.30;;
32032;SDS011;31720;52.638;9.216;2023-07-16T11:53:08;4.72;;;2.20;;
32032;SDS011;31720;52.638;9.216;2023-07-16T11:56:10;5.63;;;1.70;;
32032;SDS011;31720;52.638;9.216;2023-07-16T11:59:11;4.80;;;1.80;;
32032;SDS011;31720;52.638;9.216;2023-07-16T12:02:13;3.05;;;2.10;;
32032;SDS011;31720;52.638;9.216;2023-07-16T12:05:14;4.22;;;1.95;;
32032;SDS011;31720;52.638;9.216;2023-07-16T12:08:17;3.92;;;1.55;;
32032;SDS011;31720;52.638;9.216;2023-07-16T12:11:18;5.68;;;1.83;;
32032;SDS011;31720;52.638;9.216;2023-07-16T12:14:20;4.55;;;1.70;;
32032;SDS011;31720;52.638;9.216;2023-07-16T12:17:21;2.20;;;1.42;;
32032;SDS011;31720;52.638;9.216;2023-07-16T12:20:22;4.78;;;1.60;;
32032;SDS011;31720;52.638;9.216;2023-07-16T12:23:25;2.95;;;1.40;;
32032;SDS011;31720;52.638;9.216;2023-07-16T12:26:26;3.08;;;1.55;;
32032;SDS011;31720;52.638;9.216;2023-07-16T12:29:28;4.38;;;1.45;;
32032;SDS011;31720;52.638;9.216;2023-07-16T12:32:30;3.58;;;1.50;;
32032;SDS011;31720;52.638;9.216;2023-07-16T12:35:31;4.30;;;1.77;;
32032;SDS011;31720;52.638;9.216;2023-07-16T12:38:34;3.03;;;1.52;;
32032;SDS011;31720;52.638;9.216;2023-07-16T12:41:36;2.20;;;1.40;;
32032;SDS011;31720;52.638;9.216;2023-07-16T12:44:37;3.08;;;1.30;;
32032;SDS011;31720;52.638;9.216;2023-07-16T12:47:38;4.18;;;1.50;;
32032;SDS011;31720;52.638;9.216;2023-07-16T12:50:40;3.67;;;1.50;;
32032;SDS011;31720;52.638;9.216;2023-07-16T12:53:43;3.28;;;1.52;;
32032;SDS011;31720;52.638;9.216;2023-07-16T12:56:45;3.10;;;1.65;;
32032;SDS011;31720;52.638;9.216;2023-07-16T12:59:46;3.53;;;1.63;;
32032;SDS011;31720;52.638;9.216;2023-07-16T13:02:47;7.35;;;2.00;;
32032;SDS011;31720;52.638;9.216;2023-07-16T13:05:49;2.90;;;1.13;;
32032;SDS011;31720;52.638;9.216;2023-07-16T13:08:52;4.53;;;1.50;;
32032;SDS011;31720;52.638;9.216;2023-07-16T13:11:53;3.60;;;1.45;;
32032;SDS011;31720;52.638;9.216;2023-07-16T13:14:54;2.10;;;1.25;;
32032;SDS011;31720;52.638;9.216;2023-07-16T13:17:56;3.65;;;1.38;;
32032;SDS011;31720;52.638;9.216;2023-07-16T13:20:57;3.47;;;1.40;;
32032;SDS011;31720;52.638;9.216;2023-07-16T13:24:00;2.17;;;1.25;;
32032;SDS011;31720;52.638;9.216;2023-07-16T13:27:01;3.58;;;1.85;;
32032;SDS011;31720;52.638;9.216;2023-07-16T13:30:03;2.08;;;1.40;;
32032;SDS011;31720;52.638;9.216;2023-07-16T13:33:05;4.43;;;2.20;;
32032;SDS011;31720;52.638;9.216;2023-07-16T13:36:07;3.88;;;2.10;;
32032;SDS011;31720;52.638;9.216;2023-07-16T13:39:10;9.00;;;2.22;;
32032;SDS011;31720;52.638;9.216;2023-07-16T13:42:13;3.42;;;1.20;;
32032;SDS011;31720;52.638;9.216;2023-07-16T13:45:14;4.85;;;1.45;;
32032;SDS011;31720;52.638;9.216;2023-07-16T13:48:16;4.50;;;1.55;;
32032;SDS011;31720;52.638;9.216;2023-07-16T13:51:17;3.35;;;1.70;;
32032;SDS011;31720;52.638;9.216;2023-07-16T13:54:20;1.42;;;1.23;;
32032;SDS011;31720;52.638;9.216;2023-07-16T13:57:21;4.78;;;1.20;;
32032;SDS011;31720;52.638;9.216;2023-07-16T14:00:22;2.67;;;1.33;;
32032;SDS011;31720;52.638;9.216;2023-07-16T14:03:24;6.53;;;1.40;;
32032;SDS011;31720;52.638;9.216;2023-07-16T14:06:25;2.10;;;1.35;;
32032;SDS011;31720;52.638;9.216;2023-07-16T14:09:28;2.20;;;1.40;;
32032;SDS011;31720;52.638;9.216;2023-07-16T14:12:30;2.00;;;1.33;;
32032;SDS011;31720;52.638;9.216;2023-07-16T14:15:31;3.92;;;1.38;;
32032;SDS011;31720;52.638;9.216;2023-07-16T14:18:32;4.20;;;1.40;;
32032;SDS011;31720;52.638;9.216;2023-07-16T14:21:34;3.08;;;1.58;;
32032;SDS011;31720;52.638;9.216;2023-07-16T14:24:37;2.00;;;1.20;;
32032;SDS011;31720;52.638;9.216;2023-07-16T14:27:39;1.67;;;1.20;;
32032;SDS011;31720;52.638;9.216;2023-07-16T14:30:40;3.75;;;1.20;;
32032;SDS011;31720;52.638;9.216;2023-07-16T14:33:42;4.80;;;1.45;;
32032;SDS011;31720;52.638;9.216;2023-07-16T14:36:43;1.70;;;1.30;;
32032;SDS011;31720;52.638;9.216;2023-07-16T14:39:46;6.25;;;1.75;;
32032;SDS011;31720;52.638;9.216;2023-07-16T14:42:47;4.07;;;1.48;;
32032;SDS011;31720;52.638;9.216;2023-07-16T14:45:49;1.95;;;1.38;;
32032;SDS011;31720;52.638;9.216;2023-07-16T14:48:50;2.35;;;1.33;;
32032;SDS011;31720;52.638;9.216;2023-07-16T14:51:55;5.32;;;1.40;;
32032;SDS011;31720;52.638;9.216;2023-07-16T14:54:57;1.77;;;1.30;;
32032;SDS011;31720;52.638;9.216;2023-07-16T14:57:59;1.90;;;1.42;;
32032;SDS011;31720;52.638;9.216;2023-07-16T15:01:00;2.60;;;1.40;;
32032;SDS011;31720;52.638;9.216;2023-07-16T15:04:03;2.80;;;1.25;;
32032;SDS011;31720;52.638;9.216;2023-07-16T15:07:05;1.90;;;1.33;;
32032;SDS011;31720;52.638;9.216;2023-07-16T15:10:09;2.08;;;1.63;;
32032;SDS011;31720;52.638;9.216;2023-07-16T15:13:10;3.97;;;1.60;;
32032;SDS011;31720;52.638;9.216;2023-07-16T15:16:12;2.97;;;1.40;;
32032;SDS011;31720;52.638;9.216;2023-07-16T15:19:13;3.45;;;1.83;;
32032;SDS011;31720;52.638;9.216;2023-07-16T15:22:16;4.97;;;1.50;;
32032;SDS011;31720;52.638;9.216;2023-07-16T15:25:21;2.33;;;1.30;;
32032;SDS011;31720;52.638;9.216;2023-07-16T15:28:23;2.13;;;1.27;;
32032;SDS011;31720;52.638;9.216;2023-07-16T15:31:25;6.03;;;1.65;;
32032;SDS011;31720;52.638;9.216;2023-07-16T15:34:27;2.03;;;1.27;;
32032;SDS011;31720;52.638;9.216;2023-07-16T15:37:29;2.42;;;1.40;;
32032;SDS011;31720;52.638;9.216;2023-07-16T15:40:33;2.53;;;1.27;;
32032;SDS011;31720;52.638;9.216;2023-07-16T15:43:35;2.15;;;1.10;;
32032;SDS011;31720;52.638;9.216;2023-07-16T15:46:36;2.75;;;1.30;;
32032;SDS011;31720;52.638;9.216;2023-07-16T15:49:37;1.90;;;1.30;;
32032;SDS011;31720;52.638;9.216;2023-07-16T15:52:39;8.27;;;1.80;;
32032;SDS011;31720;52.638;9.216;2023-07-16T15:55:41;2.72;;;1.35;;
32032;SDS011;31720;52.638;9.216;2023-07-16T15:58:43;4.07;;;1.70;;
32032;SDS011;31720;52.638;9.216;2023-07-16T16:01:45;3.97;;;1.42;;
32032;SDS011;31720;52.638;9.216;2023-07-16T16:04:47;10.43;;;1.77;;
32032;SDS011;31720;52.638;9.216;2023-07-16T16:11:16;3.00;;;1.65;;
32032;SDS011;31720;52.638;9.216;2023-07-16T16:14:17;2.35;;;1.30;;
32032;SDS011;31720;52.638;9.216;2023-07-16T16:17:19;2.28;;;1.40;;
32032;SDS011;31720;52.638;9.216;2023-07-16T16:20:22;2.53;;;1.42;;
32032;SDS011;31720;52.638;9.216;2023-07-16T16:23:23;2.65;;;1.52;;
32032;SDS011;31720;52.638;9.216;2023-07-16T16:26:26;2.33;;;1.10;;
32032;SDS011;31720;52.638;9.216;2023-07-16T16:29:27;2.85;;;1.38;;
32032;SDS011;31720;52.638;9.216;2023-07-16T16:32:29;2.28;;;1.15;;
32032;SDS011;31720;52.638;9.216;2023-07-16T16:35:31;3.35;;;1.80;;
32032;SDS011;31720;52.638;9.216;2023-07-16T16:38:33;4.25;;;1.45;;
32032;SDS011;31720;52.638;9.216;2023-07-16T16:41:36;3.65;;;1.33;;
32032;SDS011;31720;52.638;9.216;2023-07-16T16:44:37;4.13;;;1.52;;
32032;SDS011;31720;52.638;9.216;2023-07-16T16:47:38;3.53;;;1.45;;
32032;SDS011;31720;52.638;9.216;2023-07-16T16:50:41;2.42;;;1.45;;
32032;SDS011;31720;52.638;9.216;2023-07-16T16:53:42;2.60;;;1.80;;
32032;SDS011;31720;52.638;9.216;2023-07-16T16:56:45;6.50;;;1.65;;
32032;SDS011;31720;52.638;9.216;2023-07-16T16:59:46;3.55;;;1.27;;
32032;SDS011;31720;52.638;9.216;2023-07-16T17:02:48;1.67;;;1.20;;
32032;SDS011;31720;52.638;9.216;2023-07-16T17:05:49;3.65;;;1.17;;
32032;SDS011;31720;52.638;9.216;2023-07-16T17:08:52;4.88;;;1.55;;
32032;SDS011;31720;52.638;9.216;2023-07-16T17:11:55;3.10;;;1.30;;
32032;SDS011;31720;52.638;9.216;2023-07-16T17:14:56;3.08;;;1.75;;
32032;SDS011;31720;52.638;9.216;2023-07-16T17:17:58;6.97;;;1.55;;
32032;SDS011;31720;52.638;9.216;2023-07-16T17:20:59;2.28;;;1.70;;
32032;SDS011;31720;52.638;9.216;2023-07-16T17:24:02;2.03;;;1.35;;
32032;SDS011;31720;52.638;9.216;2023-07-16T17:27:06;3.95;;;1.42;;
32032;SDS011;31720;52.638;9.216;2023-07-16T17:30:09;2.72;;;1.55;;
32032;SDS011;31720;52.638;9.216;2023-07-16T17:33:11;2.33;;;1.33;;
32032;SDS011;31720;52.638;9.216;2023-07-16T17:36:12;4.40;;;1.67;;
32032;SDS011;31720;52.638;9.216;2023-07-16T17:39:14;3.30;;;1.30;;
32032;SDS011;31720;52.638;9.216;2023-07-16T17:42:17;5.38;;;2.17;;
32032;SDS011;31720;52.638;9.216;2023-07-16T17:45:19;4.15;;;1.80;;
32032;SDS011;31720;52.638;9.216;2023-07-16T17:48:21;2.70;;;1.63;;
32032;SDS011;31720;52.638;9.216;2023-07-16T17:51:23;4.15;;;1.45;;
32032;SDS011;31720;52.638;9.216;2023-07-16T17:54:25;3.30;;;1.80;;
32032;SDS011;31720;52.638;9.216;2023-07-16T17:57:28;3.80;;;1.20;;
32032;SDS011;31720;52.638;9.216;2023-07-16T18:00:29;3.17;;;1.50;;
32032;SDS011;31720;52.638;9.216;2023-07-16T18:03:30;3.38;;;1.52;;
32032;SDS011;31720;52.638;9.216;2023-07-16T18:06:32;5.55;;;1.88;;
32032;SDS011;31720;52.638;9.216;2023-07-16T18:09:33;2.47;;;1.48;;
32032;SDS011;31720;52.638;9.216;2023-07-16T18:12:36;3.88;;;1.33;;
32032;SDS011;31720;52.638;9.216;2023-07-16T18:15:38;3.25;;;1.60;;
32032;SDS011;31720;52.638;9.216;2023-07-16T18:18:39;3.00;;;1.50;;
32032;SDS011;31720;52.638;9.216;2023-07-16T18:21:41;1.85;;;1.10;;